Time;durP1;ratioP1;P1;durP2;ratioP2;P2;SDS_P1;SDS_P2;PMS_P1;PMS_P2;Temp;Humidity;BMP_temperature;BMP_pressure;BME280_temperature;BME280_humidity;BME280_pressure;Samples;Min_cycle;Max_cycle;Signal;HPM_P1;HPM_P2
2024/02/26 00:02:09;;;;;;;0.7;0.7;;;;;;;;;;;;;
2024/02/26 00:04:33;;;;;;;1.8;0.7;;;;;;;;;;;;;
2024/02/26 00:06:58;;;;;;;1.5;0.7;;;;;;;;;;;;;
2024/02/26 00:09:23;;;;;;;0.5;0.5;;;;;;;;;;;;;
2024/02/26 00:11:49;;;;;;;0.9;0.6;;;;;;;;;;;;;
2024/02/26 00:14:14;;;;;;;0.5;0.4;;;;;;;;;;;;;
2024/02/26 00:16:39;;;;;;;0.4;0.4;;;;;;;;;;;;;
2024/02/26 00:19:04;;;;;;;0.6;0.6;;;;;;;;;;;;;
2024/02/26 00:21:29;;;;;;;2.9;0.6;;;;;;;;;;;;;
2024/02/26 00:23:54;;;;;;;0.4;0.4;;;;;;;;;;;;;
2024/02/26 00:26:19;;;;;;;0.6;0.6;;;;;;;;;;;;;
2024/02/26 00:28:44;;;;;;;0.6;0.5;;;;;;;;;;;;;
2024/02/26 00:31:10;;;;;;;1.7;0.6;;;;;;;;;;;;;
2024/02/26 00:33:35;;;;;;;0.6;0.6;;;;;;;;;;;;;
2024/02/26 00:36:00;;;;;;;0.4;0.4;;;;;;;;;;;;;
2024/02/26 00:38:25;;;;;;;0.4;0.4;;;;;;;;;;;;;
2024/02/26 00:40:50;;;;;;;0.4;0.4;;;;;;;;;;;;;
2024/02/26 00:43:15;;;;;;;0.6;0.4;;;;;;;;;;;;;
2024/02/26 00:45:40;;;;;;;1;0.5;;;;;;;;;;;;;
2024/02/26 00:48:07;;;;;;;1;0.7;;;;;;;;;;;;;
2024/02/26 00:50:30;;;;;;;1;0.4;;;;;;;;;;;;;
2024/02/26 00:52:56;;;;;;;0.4;0.3;;;;;;;;;;;;;
2024/02/26 00:55:20;;;;;;;0.6;0.6;;;;;;;;;;;;;
2024/02/26 00:57:46;;;;;;;1;0.5;;;;;;;;;;;;;
2024/02/26 01:00:11;;;;;;;0.8;0.5;;;;;;;;;;;;;
2024/02/26 01:02:36;;;;;;;0.7;0.5;;;;;;;;;;;;;
2024/02/26 01:05:02;;;;;;;0.7;0.7;;;;;;;;;;;;;
2024/02/26 01:07:26;;;;;;;1.7;0.6;;;;;;;;;;;;;
2024/02/26 01:09:51;;;;;;;0.6;0.6;;;;;;;;;;;;;
2024/02/26 01:12:16;;;;;;;0.5;0.5;;;;;;;;;;;;;
2024/02/26 01:14:42;;;;;;;0.5;0.5;;;;;;;;;;;;;
2024/02/26 01:17:06;;;;;;;0.7;0.6;;;;;;;;;;;;;
2024/02/26 01:19:32;;;;;;;0.6;0.5;;;;;;;;;;;;;
2024/02/26 01:21:57;;;;;;;0.5;0.4;;;;;;;;;;;;;
2024/02/26 01:24:22;;;;;;;1.6;0.5;;;;;;;;;;;;;
2024/02/26 01:26:47;;;;;;;0.9;0.5;;;;;;;;;;;;;
2024/02/26 01:29:12;;;;;;;0.4;0.3;;;;;;;;;;;;;
2024/02/26 01:31:37;;;;;;;0.6;0.6;;;;;;;;;;;;;
2024/02/26 01:34:02;;;;;;;0.5;0.5;;;;;;;;;;;;;
2024/02/26 01:36:27;;;;;;;0.4;0.4;;;;;;;;;;;;;
2024/02/26 01:38:52;;;;;;;2.5;0.5;;;;;;;;;;;;;
2024/02/26 01:41:17;;;;;;;0.9;0.5;;;;;;;;;;;;;
2024/02/26 01:43:43;;;;;;;0.4;0.4;;;;;;;;;;;;;
2024/02/26 01:46:08;;;;;;;1.1;0.5;;;;;;;;;;;;;
2024/02/26 01:48:33;;;;;;;1.7;0.5;;;;;;;;;;;;;
2024/02/26 01:50:58;;;;;;;0.6;0.5;;;;;;;;;;;;;
2024/02/26 01:53:23;;;;;;;0.7;0.6;;;;;;;;;;;;;
2024/02/26 01:55:48;;;;;;;0.5;0.5;;;;;;;;;;;;;
2024/02/26 01:58:13;;;;;;;0.9;0.6;;;;;;;;;;;;;
2024/02/26 02:00:39;;;;;;;1;0.5;;;;;;;;;;;;;
2024/02/26 02:03:04;;;;;;;0.5;0.5;;;;;;;;;;;;;
2024/02/26 02:05:29;;;;;;;1.4;0.6;;;;;;;;;;;;;
2024/02/26 02:07:54;;;;;;;0.6;0.5;;;;;;;;;;;;;
2024/02/26 02:10:22;;;;;;;1.4;0.5;;;;;;;;;;;;;
2024/02/26 02:12:44;;;;;;;0.9;0.7;;;;;;;;;;;;;
2024/02/26 02:15:10;;;;;;;0.8;0.7;;;;;;;;;;;;;
2024/02/26 02:17:34;;;;;;;0.9;0.6;;;;;;;;;;;;;
2024/02/26 02:19:59;;;;;;;3.6;0.8;;;;;;;;;;;;;
2024/02/26 02:22:24;;;;;;;0.7;0.6;;;;;;;;;;;;;
2024/02/26 02:24:50;;;;;;;1.5;0.7;;;;;;;;;;;;;
2024/02/26 02:27:15;;;;;;;1;0.7;;;;;;;;;;;;;
2024/02/26 02:29:40;;;;;;;0.9;0.8;;;;;;;;;;;;;
2024/02/26 02:32:05;;;;;;;1;0.8;;;;;;;;;;;;;
2024/02/26 02:34:30;;;;;;;1;0.6;;;;;;;;;;;;;
2024/02/26 02:36:55;;;;;;;0.6;0.6;;;;;;;;;;;;;
2024/02/26 02:39:20;;;;;;;0.4;0.4;;;;;;;;;;;;;
2024/02/26 02:41:45;;;;;;;0.7;0.6;;;;;;;;;;;;;
2024/02/26 02:44:10;;;;;;;1.5;0.8;;;;;;;;;;;;;
2024/02/26 02:46:35;;;;;;;0.6;0.6;;;;;;;;;;;;;
2024/02/26 02:49:00;;;;;;;1.2;0.5;;;;;;;;;;;;;
2024/02/26 02:51:26;;;;;;;0.5;0.5;;;;;;;;;;;;;
2024/02/26 02:53:51;;;;;;;0.5;0.5;;;;;;;;;;;;;
2024/02/26 02:56:16;;;;;;;0.4;0.4;;;;;;;;;;;;;
2024/02/26 02:58:41;;;;;;;0.8;0.6;;;;;;;;;;;;;
2024/02/26 03:01:06;;;;;;;0.5;0.5;;;;;;;;;;;;;
2024/02/26 03:03:31;;;;;;;1.8;0.5;;;;;;;;;;;;;
2024/02/26 03:05:57;;;;;;;0.7;0.5;;;;;;;;;;;;;
2024/02/26 03:08:21;;;;;;;0.6;0.6;;;;;;;;;;;;;
2024/02/26 03:10:46;;;;;;;1.1;0.6;;;;;;;;;;;;;
2024/02/26 03:13:12;;;;;;;0.4;0.4;;;;;;;;;;;;;
2024/02/26 03:15:37;;;;;;;1.1;0.7;;;;;;;;;;;;;
2024/02/26 03:18:02;;;;;;;0.4;0.4;;;;;;;;;;;;;
2024/02/26 03:20:27;;;;;;;0.5;0.4;;;;;;;;;;;;;
2024/02/26 03:22:52;;;;;;;0.5;0.5;;;;;;;;;;;;;
2024/02/26 03:25:17;;;;;;;1.4;0.6;;;;;;;;;;;;;
2024/02/26 03:27:42;;;;;;;0.6;0.5;;;;;;;;;;;;;
2024/02/26 03:30:08;;;;;;;0.8;0.5;;;;;;;;;;;;;
2024/02/26 03:32:32;;;;;;;2.1;0.6;;;;;;;;;;;;;
2024/02/26 03:34:58;;;;;;;1.1;0.6;;;;;;;;;;;;;
2024/02/26 03:37:23;;;;;;;0.8;0.7;;;;;;;;;;;;;
2024/02/26 03:39:48;;;;;;;1.2;0.8;;;;;;;;;;;;;
2024/02/26 03:42:13;;;;;;;1.4;0.5;;;;;;;;;;;;;
2024/02/26 03:44:39;;;;;;;2.1;1;;;;;;;;;;;;;
2024/02/26 03:47:03;;;;;;;2.2;0.6;;;;;;;;;;;;;
2024/02/26 03:49:28;;;;;;;1.3;0.6;;;;;;;;;;;;;
2024/02/26 03:51:53;;;;;;;0.9;0.7;;;;;;;;;;;;;
2024/02/26 03:54:19;;;;;;;0.6;0.5;;;;;;;;;;;;;
2024/02/26 03:56:44;;;;;;;1.1;0.5;;;;;;;;;;;;;
2024/02/26 03:59:09;;;;;;;0.8;0.6;;;;;;;;;;;;;
2024/02/26 04:02:31;;;;;;;1.1;0.6;;;;;;;;;;;;;
2024/02/26 04:04:56;;;;;;;0.5;0.5;;;;;;;;;;;;;
2024/02/26 04:07:21;;;;;;;0.9;0.5;;;;;;;;;;;;;
2024/02/26 04:09:46;;;;;;;0.6;0.6;;;;;;;;;;;;;
2024/02/26 04:12:11;;;;;;;0.5;0.5;;;;;;;;;;;;;
2024/02/26 04:14:36;;;;;;;0.6;0.6;;;;;;;;;;;;;
2024/02/26 04:17:01;;;;;;;2.7;1.3;;;;;;;;;;;;;
2024/02/26 04:19:26;;;;;;;3;1.5;;;;;;;;;;;;;
2024/02/26 04:21:52;;;;;;;6.4;2.1;;;;;;;;;;;;;
2024/02/26 04:24:17;;;;;;;2.4;1.6;;;;;;;;;;;;;
2024/02/26 04:26:42;;;;;;;2.3;1.4;;;;;;;;;;;;;
2024/02/26 04:29:07;;;;;;;3.1;1.3;;;;;;;;;;;;;
2024/02/26 04:31:32;;;;;;;3.5;1.3;;;;;;;;;;;;;
2024/02/26 04:33:57;;;;;;;2.3;1.5;;;;;;;;;;;;;
2024/02/26 04:36:23;;;;;;;1.5;1.3;;;;;;;;;;;;;
2024/02/26 04:38:47;;;;;;;1.7;0.8;;;;;;;;;;;;;
2024/02/26 04:41:12;;;;;;;1.2;0.8;;;;;;;;;;;;;
2024/02/26 04:43:41;;;;;;;1;0.9;;;;;;;;;;;;;
2024/02/26 04:46:02;;;;;;;0.4;0.4;;;;;;;;;;;;;
2024/02/26 04:48:28;;;;;;;1.7;0.9;;;;;;;;;;;;;
2024/02/26 04:50:53;;;;;;;4.3;1.9;;;;;;;;;;;;;
2024/02/26 04:53:18;;;;;;;2.9;1.7;;;;;;;;;;;;;
2024/02/26 04:55:43;;;;;;;2;1.4;;;;;;;;;;;;;
2024/02/26 04:58:08;;;;;;;1.9;1.1;;;;;;;;;;;;;
2024/02/26 05:00:33;;;;;;;1.2;1;;;;;;;;;;;;;
2024/02/26 05:02:58;;;;;;;1.6;0.9;;;;;;;;;;;;;
2024/02/26 05:05:23;;;;;;;8;1.7;;;;;;;;;;;;;
2024/02/26 05:07:48;;;;;;;3.7;1.2;;;;;;;;;;;;;
2024/02/26 05:10:13;;;;;;;10.5;4;;;;;;;;;;;;;
2024/02/26 05:12:40;;;;;;;8.2;3.2;;;;;;;;;;;;;
2024/02/26 05:15:04;;;;;;;6.2;2.6;;;;;;;;;;;;;
2024/02/26 05:17:29;;;;;;;3;1.8;;;;;;;;;;;;;
2024/02/26 05:19:55;;;;;;;2.5;1.3;;;;;;;;;;;;;
2024/02/26 05:22:19;;;;;;;1.4;0.7;;;;;;;;;;;;;
2024/02/26 05:24:44;;;;;;;1.9;0.7;;;;;;;;;;;;;
2024/02/26 05:27:09;;;;;;;2.3;0.7;;;;;;;;;;;;;
2024/02/26 05:29:34;;;;;;;1.2;0.8;;;;;;;;;;;;;
2024/02/26 05:32:00;;;;;;;2.2;0.8;;;;;;;;;;;;;
2024/02/26 05:34:25;;;;;;;5.1;1.5;;;;;;;;;;;;;
2024/02/26 05:36:50;;;;;;;3.1;1;;;;;;;;;;;;;
2024/02/26 05:39:16;;;;;;;0.9;0.8;;;;;;;;;;;;;
2024/02/26 05:41:42;;;;;;;2.5;1;;;;;;;;;;;;;
2024/02/26 05:44:05;;;;;;;1.3;0.8;;;;;;;;;;;;;
2024/02/26 05:46:30;;;;;;;1.6;0.9;;;;;;;;;;;;;
2024/02/26 05:48:55;;;;;;;0.6;0.5;;;;;;;;;;;;;
2024/02/26 05:51:20;;;;;;;0.7;0.3;;;;;;;;;;;;;
2024/02/26 05:53:46;;;;;;;0.8;0.4;;;;;;;;;;;;;
2024/02/26 05:56:11;;;;;;;0.7;0.5;;;;;;;;;;;;;
2024/02/26 05:58:36;;;;;;;1.4;0.5;;;;;;;;;;;;;
2024/02/26 06:01:01;;;;;;;2.3;0.7;;;;;;;;;;;;;
2024/02/26 06:03:26;;;;;;;0.9;0.7;;;;;;;;;;;;;
2024/02/26 06:05:51;;;;;;;4.1;1;;;;;;;;;;;;;
2024/02/26 06:08:16;;;;;;;5.2;1.1;;;;;;;;;;;;;
2024/02/26 06:10:41;;;;;;;2.2;1.2;;;;;;;;;;;;;
2024/02/26 06:13:06;;;;;;;3.8;2.1;;;;;;;;;;;;;
2024/02/26 06:15:31;;;;;;;4.3;2.2;;;;;;;;;;;;;
2024/02/26 06:17:56;;;;;;;3.1;2.2;;;;;;;;;;;;;
2024/02/26 06:20:22;;;;;;;6.2;3;;;;;;;;;;;;;
2024/02/26 06:22:47;;;;;;;6.6;2.8;;;;;;;;;;;;;
2024/02/26 06:25:12;;;;;;;2.2;2;;;;;;;;;;;;;
2024/02/26 06:27:37;;;;;;;4.9;3.2;;;;;;;;;;;;;
2024/02/26 06:30:02;;;;;;;4.1;2.8;;;;;;;;;;;;;
2024/02/26 06:32:29;;;;;;;2.5;1.4;;;;;;;;;;;;;
2024/02/26 06:34:52;;;;;;;4.1;2.4;;;;;;;;;;;;;
2024/02/26 06:37:17;;;;;;;5.1;2.4;;;;;;;;;;;;;
2024/02/26 06:39:43;;;;;;;3.8;1.9;;;;;;;;;;;;;
2024/02/26 06:42:08;;;;;;;6.5;2.1;;;;;;;;;;;;;
2024/02/26 06:44:33;;;;;;;6.4;2.3;;;;;;;;;;;;;
2024/02/26 06:46:58;;;;;;;1.9;1.3;;;;;;;;;;;;;
2024/02/26 06:49:23;;;;;;;2.8;1.5;;;;;;;;;;;;;
2024/02/26 06:51:49;;;;;;;4;1.4;;;;;;;;;;;;;
2024/02/26 06:54:13;;;;;;;3.4;1.8;;;;;;;;;;;;;
2024/02/26 06:56:39;;;;;;;2.2;1.3;;;;;;;;;;;;;
2024/02/26 06:59:04;;;;;;;6.5;2.5;;;;;;;;;;;;;
2024/02/26 07:01:30;;;;;;;14.6;4.6;;;;;;;;;;;;;
2024/02/26 07:03:54;;;;;;;5;2.9;;;;;;;;;;;;;
2024/02/26 07:06:19;;;;;;;4.6;2.1;;;;;;;;;;;;;
2024/02/26 07:08:44;;;;;;;1.7;1.3;;;;;;;;;;;;;
2024/02/26 07:11:10;;;;;;;2.2;1.8;;;;;;;;;;;;;
2024/02/26 07:13:34;;;;;;;3.1;2.1;;;;;;;;;;;;;
2024/02/26 07:15:59;;;;;;;3;1.7;;;;;;;;;;;;;
2024/02/26 07:18:25;;;;;;;2.6;1.6;;;;;;;;;;;;;
2024/02/26 07:20:50;;;;;;;9.2;3.4;;;;;;;;;;;;;
2024/02/26 07:23:15;;;;;;;10.9;4.1;;;;;;;;;;;;;
2024/02/26 07:25:40;;;;;;;8;3.6;;;;;;;;;;;;;
2024/02/26 07:28:05;;;;;;;11.2;5.6;;;;;;;;;;;;;
2024/02/26 07:30:30;;;;;;;8.9;3.3;;;;;;;;;;;;;
2024/02/26 07:32:56;;;;;;;10;4.1;;;;;;;;;;;;;
2024/02/26 07:35:20;;;;;;;5.5;2.4;;;;;;;;;;;;;
2024/02/26 07:37:45;;;;;;;6.9;3;;;;;;;;;;;;;
2024/02/26 07:40:10;;;;;;;7.8;3.2;;;;;;;;;;;;;
2024/02/26 07:42:36;;;;;;;8.9;3.4;;;;;;;;;;;;;
2024/02/26 07:45:00;;;;;;;6.1;2.7;;;;;;;;;;;;;
2024/02/26 07:47:25;;;;;;;4.3;2.1;;;;;;;;;;;;;
2024/02/26 07:49:51;;;;;;;4.8;2.5;;;;;;;;;;;;;
2024/02/26 07:52:16;;;;;;;4.6;2.2;;;;;;;;;;;;;
2024/02/26 07:54:41;;;;;;;2.8;1.6;;;;;;;;;;;;;
2024/02/26 07:57:07;;;;;;;5.8;2.1;;;;;;;;;;;;;
2024/02/26 07:59:31;;;;;;;5.3;2.9;;;;;;;;;;;;;
2024/02/26 08:01:56;;;;;;;5.2;2;;;;;;;;;;;;;
2024/02/26 08:04:22;;;;;;;6.6;2.2;;;;;;;;;;;;;
2024/02/26 08:06:47;;;;;;;12.9;6.9;;;;;;;;;;;;;
2024/02/26 08:09:12;;;;;;;13.6;7.4;;;;;;;;;;;;;
2024/02/26 08:11:37;;;;;;;5.1;2.6;;;;;;;;;;;;;
2024/02/26 08:14:02;;;;;;;3.7;2.5;;;;;;;;;;;;;
2024/02/26 08:16:28;;;;;;;4;2.1;;;;;;;;;;;;;
2024/02/26 08:18:53;;;;;;;3.3;2.1;;;;;;;;;;;;;
2024/02/26 08:21:18;;;;;;;5.4;2.7;;;;;;;;;;;;;
2024/02/26 08:23:43;;;;;;;9;4.2;;;;;;;;;;;;;
2024/02/26 08:26:11;;;;;;;10.7;4.4;;;;;;;;;;;;;
2024/02/26 08:28:33;;;;;;;13.8;6.8;;;;;;;;;;;;;
2024/02/26 08:30:58;;;;;;;10.3;4.8;;;;;;;;;;;;;
2024/02/26 08:33:23;;;;;;;10.2;4.8;;;;;;;;;;;;;
2024/02/26 08:35:49;;;;;;;10.1;4.3;;;;;;;;;;;;;
2024/02/26 08:38:14;;;;;;;6.8;3.4;;;;;;;;;;;;;
2024/02/26 08:40:39;;;;;;;6.1;3.9;;;;;;;;;;;;;
2024/02/26 08:43:04;;;;;;;4.3;1.9;;;;;;;;;;;;;
2024/02/26 08:45:29;;;;;;;2.2;1.6;;;;;;;;;;;;;
2024/02/26 08:47:54;;;;;;;4;2.7;;;;;;;;;;;;;
2024/02/26 08:50:19;;;;;;;4.9;2.3;;;;;;;;;;;;;
2024/02/26 08:52:48;;;;;;;2;1.4;;;;;;;;;;;;;
2024/02/26 08:55:10;;;;;;;2.8;1.2;;;;;;;;;;;;;
2024/02/26 08:57:35;;;;;;;2.6;1;;;;;;;;;;;;;
2024/02/26 09:00:00;;;;;;;1.1;0.8;;;;;;;;;;;;;
2024/02/26 09:02:25;;;;;;;5.2;1.4;;;;;;;;;;;;;
2024/02/26 09:04:51;;;;;;;2;0.7;;;;;;;;;;;;;
2024/02/26 09:07:15;;;;;;;1.1;0.7;;;;;;;;;;;;;
2024/02/26 09:09:41;;;;;;;1.4;0.8;;;;;;;;;;;;;
2024/02/26 09:12:06;;;;;;;0.7;0.7;;;;;;;;;;;;;
2024/02/26 09:14:31;;;;;;;3.7;1.7;;;;;;;;;;;;;
2024/02/26 09:16:56;;;;;;;2.3;1.6;;;;;;;;;;;;;
2024/02/26 09:19:21;;;;;;;2.8;2.2;;;;;;;;;;;;;
2024/02/26 09:21:46;;;;;;;3.8;2;;;;;;;;;;;;;
2024/02/26 09:24:11;;;;;;;3.4;1;;;;;;;;;;;;;
2024/02/26 09:26:37;;;;;;;1.6;0.9;;;;;;;;;;;;;
2024/02/26 09:29:01;;;;;;;0.7;0.6;;;;;;;;;;;;;
2024/02/26 09:31:26;;;;;;;1.1;0.6;;;;;;;;;;;;;
2024/02/26 09:33:52;;;;;;;0.8;0.8;;;;;;;;;;;;;
2024/02/26 09:36:17;;;;;;;1.2;0.8;;;;;;;;;;;;;
2024/02/26 09:38:42;;;;;;;2.4;0.9;;;;;;;;;;;;;
2024/02/26 09:41:07;;;;;;;1.5;1.1;;;;;;;;;;;;;
2024/02/26 09:43:32;;;;;;;1.1;0.6;;;;;;;;;;;;;
2024/02/26 09:45:57;;;;;;;1.2;0.7;;;;;;;;;;;;;
2024/02/26 09:48:22;;;;;;;1.1;0.8;;;;;;;;;;;;;
2024/02/26 09:50:47;;;;;;;3.4;0.9;;;;;;;;;;;;;
2024/02/26 09:53:14;;;;;;;2.1;1.1;;;;;;;;;;;;;
2024/02/26 09:55:38;;;;;;;0.7;0.7;;;;;;;;;;;;;
2024/02/26 09:58:03;;;;;;;0.5;0.4;;;;;;;;;;;;;
2024/02/26 10:00:28;;;;;;;1.9;0.8;;;;;;;;;;;;;
2024/02/26 10:02:53;;;;;;;1.3;0.4;;;;;;;;;;;;;
2024/02/26 10:05:19;;;;;;;3.2;0.6;;;;;;;;;;;;;
2024/02/26 10:07:43;;;;;;;1.4;0.6;;;;;;;;;;;;;
2024/02/26 10:10:08;;;;;;;0.4;0.4;;;;;;;;;;;;;
2024/02/26 10:12:33;;;;;;;0.5;0.4;;;;;;;;;;;;;
2024/02/26 10:14:58;;;;;;;0.6;0.5;;;;;;;;;;;;;
2024/02/26 10:17:24;;;;;;;1.2;0.5;;;;;;;;;;;;;
2024/02/26 10:19:51;;;;;;;0.6;0.6;;;;;;;;;;;;;
2024/02/26 10:22:14;;;;;;;2.3;0.8;;;;;;;;;;;;;
2024/02/26 10:24:39;;;;;;;1.6;1;;;;;;;;;;;;;
2024/02/26 10:27:04;;;;;;;1.3;0.6;;;;;;;;;;;;;
2024/02/26 10:29:29;;;;;;;1.7;0.5;;;;;;;;;;;;;
2024/02/26 10:31:55;;;;;;;0.5;0.5;;;;;;;;;;;;;
2024/02/26 10:34:19;;;;;;;1.2;0.4;;;;;;;;;;;;;
2024/02/26 10:36:45;;;;;;;0.5;0.5;;;;;;;;;;;;;
2024/02/26 10:39:10;;;;;;;0.5;0.5;;;;;;;;;;;;;
2024/02/26 10:41:35;;;;;;;1.5;0.7;;;;;;;;;;;;;
2024/02/26 10:44:00;;;;;;;1.1;0.5;;;;;;;;;;;;;
2024/02/26 10:46:25;;;;;;;0.4;0.3;;;;;;;;;;;;;
2024/02/26 10:48:51;;;;;;;1.7;1;;;;;;;;;;;;;
2024/02/26 10:51:15;;;;;;;0.6;0.6;;;;;;;;;;;;;
2024/02/26 10:53:40;;;;;;;1.4;0.6;;;;;;;;;;;;;
2024/02/26 10:56:06;;;;;;;0.7;0.6;;;;;;;;;;;;;
2024/02/26 10:58:31;;;;;;;0.7;0.5;;;;;;;;;;;;;
2024/02/26 11:00:56;;;;;;;1.6;0.6;;;;;;;;;;;;;
2024/02/26 11:03:21;;;;;;;0.9;0.4;;;;;;;;;;;;;
2024/02/26 11:05:46;;;;;;;0.4;0.4;;;;;;;;;;;;;
2024/02/26 11:08:11;;;;;;;0.9;0.7;;;;;;;;;;;;;
2024/02/26 11:10:36;;;;;;;0.5;0.4;;;;;;;;;;;;;
2024/02/26 11:13:02;;;;;;;1;0.4;;;;;;;;;;;;;
2024/02/26 11:15:27;;;;;;;1;0.5;;;;;;;;;;;;;
2024/02/26 11:17:52;;;;;;;0.5;0.5;;;;;;;;;;;;;
2024/02/26 11:20:17;;;;;;;1.1;0.4;;;;;;;;;;;;;
2024/02/26 11:22:42;;;;;;;0.5;0.5;;;;;;;;;;;;;
2024/02/26 11:25:07;;;;;;;0.4;0.4;;;;;;;;;;;;;
2024/02/26 11:27:33;;;;;;;0.6;0.5;;;;;;;;;;;;;
2024/02/26 11:29:59;;;;;;;1;0.8;;;;;;;;;;;;;
2024/02/26 11:32:23;;;;;;;1.8;1;;;;;;;;;;;;;
2024/02/26 11:34:48;;;;;;;1.8;1.1;;;;;;;;;;;;;
2024/02/26 11:37:13;;;;;;;1.4;0.6;;;;;;;;;;;;;
2024/02/26 11:39:38;;;;;;;3.1;0.9;;;;;;;;;;;;;
2024/02/26 11:42:03;;;;;;;1.1;0.8;;;;;;;;;;;;;
2024/02/26 11:44:28;;;;;;;2.6;0.8;;;;;;;;;;;;;
2024/02/26 11:46:53;;;;;;;1.9;1;;;;;;;;;;;;;
2024/02/26 11:49:18;;;;;;;2.7;1.3;;;;;;;;;;;;;
2024/02/26 11:51:43;;;;;;;1.7;1.2;;;;;;;;;;;;;
2024/02/26 11:54:08;;;;;;;2.8;1.2;;;;;;;;;;;;;
2024/02/26 11:56:34;;;;;;;1.7;1.2;;;;;;;;;;;;;
2024/02/26 11:58:59;;;;;;;0.9;0.9;;;;;;;;;;;;;
2024/02/26 12:01:24;;;;;;;1.7;0.9;;;;;;;;;;;;;
2024/02/26 12:03:49;;;;;;;1.3;0.7;;;;;;;;;;;;;
2024/02/26 12:06:14;;;;;;;1.1;0.6;;;;;;;;;;;;;
2024/02/26 12:08:39;;;;;;;1.6;0.6;;;;;;;;;;;;;
2024/02/26 12:11:04;;;;;;;2.1;0.7;;;;;;;;;;;;;
2024/02/26 12:13:30;;;;;;;15;1.7;;;;;;;;;;;;;
2024/02/26 12:15:55;;;;;;;3.6;0.7;;;;;;;;;;;;;
2024/02/26 12:18:20;;;;;;;1;0.7;;;;;;;;;;;;;
2024/02/26 12:20:46;;;;;;;1.7;0.7;;;;;;;;;;;;;
2024/02/26 12:23:10;;;;;;;1.5;0.7;;;;;;;;;;;;;
2024/02/26 12:25:35;;;;;;;1.4;0.7;;;;;;;;;;;;;
2024/02/26 12:28:00;;;;;;;0.9;0.5;;;;;;;;;;;;;
2024/02/26 12:30:26;;;;;;;2.3;0.6;;;;;;;;;;;;;
2024/02/26 12:32:51;;;;;;;1.2;0.7;;;;;;;;;;;;;
2024/02/26 12:35:16;;;;;;;2.3;1;;;;;;;;;;;;;
2024/02/26 12:37:41;;;;;;;2.8;1.1;;;;;;;;;;;;;
2024/02/26 12:40:08;;;;;;;1.7;0.9;;;;;;;;;;;;;
2024/02/26 12:42:33;;;;;;;1.9;0.9;;;;;;;;;;;;;
2024/02/26 12:44:56;;;;;;;1.2;0.9;;;;;;;;;;;;;
2024/02/26 12:47:21;;;;;;;2.2;1.3;;;;;;;;;;;;;
2024/02/26 12:49:47;;;;;;;1.2;0.9;;;;;;;;;;;;;
2024/02/26 12:52:12;;;;;;;1.9;0.9;;;;;;;;;;;;;
2024/02/26 12:54:38;;;;;;;1.3;0.8;;;;;;;;;;;;;
2024/02/26 12:57:02;;;;;;;1.3;1;;;;;;;;;;;;;
2024/02/26 12:59:27;;;;;;;0.9;0.9;;;;;;;;;;;;;
2024/02/26 13:01:52;;;;;;;1.1;0.9;;;;;;;;;;;;;
2024/02/26 13:04:17;;;;;;;2.1;0.8;;;;;;;;;;;;;
2024/02/26 13:06:42;;;;;;;1.1;0.8;;;;;;;;;;;;;
2024/02/26 13:09:09;;;;;;;1.4;0.8;;;;;;;;;;;;;
2024/02/26 13:11:32;;;;;;;2.3;1.1;;;;;;;;;;;;;
2024/02/26 13:13:57;;;;;;;1.2;1.1;;;;;;;;;;;;;
2024/02/26 13:16:23;;;;;;;2.5;1.1;;;;;;;;;;;;;
2024/02/26 13:18:48;;;;;;;2.4;1.4;;;;;;;;;;;;;
2024/02/26 13:21:13;;;;;;;3.3;1.2;;;;;;;;;;;;;
2024/02/26 13:23:38;;;;;;;3.5;1.1;;;;;;;;;;;;;
2024/02/26 13:26:03;;;;;;;3.7;0.9;;;;;;;;;;;;;
2024/02/26 13:28:29;;;;;;;0.8;0.8;;;;;;;;;;;;;
2024/02/26 13:30:56;;;;;;;0.8;0.5;;;;;;;;;;;;;
2024/02/26 13:33:18;;;;;;;1.1;0.7;;;;;;;;;;;;;
2024/02/26 13:35:43;;;;;;;2.1;1;;;;;;;;;;;;;
2024/02/26 13:38:09;;;;;;;3.5;1.7;;;;;;;;;;;;;
2024/02/26 13:40:34;;;;;;;3.4;1.8;;;;;;;;;;;;;
2024/02/26 13:42:59;;;;;;;1.8;1.3;;;;;;;;;;;;;
2024/02/26 13:45:24;;;;;;;1.9;1.2;;;;;;;;;;;;;
2024/02/26 13:47:49;;;;;;;4.4;1.8;;;;;;;;;;;;;
2024/02/26 13:50:14;;;;;;;1.5;1;;;;;;;;;;;;;
2024/02/26 13:52:40;;;;;;;2.1;1.2;;;;;;;;;;;;;
2024/02/26 13:55:05;;;;;;;1.3;0.9;;;;;;;;;;;;;
2024/02/26 13:57:30;;;;;;;3.5;1.9;;;;;;;;;;;;;
2024/02/26 13:59:55;;;;;;;1.6;1;;;;;;;;;;;;;
2024/02/26 14:02:20;;;;;;;1;0.7;;;;;;;;;;;;;
2024/02/26 14:04:45;;;;;;;1;0.9;;;;;;;;;;;;;
2024/02/26 14:07:10;;;;;;;1;0.9;;;;;;;;;;;;;
2024/02/26 14:09:35;;;;;;;1.1;0.9;;;;;;;;;;;;;
2024/02/26 14:12:00;;;;;;;0.8;0.8;;;;;;;;;;;;;
2024/02/26 14:14:26;;;;;;;1.1;0.8;;;;;;;;;;;;;
2024/02/26 14:16:51;;;;;;;1.9;1;;;;;;;;;;;;;
2024/02/26 14:19:16;;;;;;;1.2;0.9;;;;;;;;;;;;;
2024/02/26 14:21:42;;;;;;;1.2;0.9;;;;;;;;;;;;;
2024/02/26 14:24:06;;;;;;;1.1;1;;;;;;;;;;;;;
2024/02/26 14:26:31;;;;;;;2.3;1;;;;;;;;;;;;;
2024/02/26 14:28:56;;;;;;;2.5;0.9;;;;;;;;;;;;;
2024/02/26 14:31:21;;;;;;;1.1;0.9;;;;;;;;;;;;;
2024/02/26 14:33:47;;;;;;;3.1;1.7;;;;;;;;;;;;;
2024/02/26 14:36:11;;;;;;;2.9;1.8;;;;;;;;;;;;;
2024/02/26 14:38:37;;;;;;;2.2;1.4;;;;;;;;;;;;;
2024/02/26 14:41:03;;;;;;;2.4;1.4;;;;;;;;;;;;;
2024/02/26 14:43:27;;;;;;;7;4;;;;;;;;;;;;;
2024/02/26 14:45:52;;;;;;;12.1;5.4;;;;;;;;;;;;;
2024/02/26 14:48:17;;;;;;;3.4;1.8;;;;;;;;;;;;;
2024/02/26 14:50:42;;;;;;;3.7;1.3;;;;;;;;;;;;;
2024/02/26 14:53:07;;;;;;;2;1.1;;;;;;;;;;;;;
2024/02/26 14:55:33;;;;;;;2.2;1.6;;;;;;;;;;;;;
2024/02/26 14:57:58;;;;;;;3;1.6;;;;;;;;;;;;;
2024/02/26 15:00:23;;;;;;;4.4;1.9;;;;;;;;;;;;;
2024/02/26 15:02:48;;;;;;;3.9;2.5;;;;;;;;;;;;;
2024/02/26 15:05:13;;;;;;;2.7;1.7;;;;;;;;;;;;;
2024/02/26 15:07:39;;;;;;;1.7;1;;;;;;;;;;;;;
2024/02/26 15:10:04;;;;;;;1.4;0.6;;;;;;;;;;;;;
2024/02/26 15:12:29;;;;;;;1.2;0.6;;;;;;;;;;;;;
2024/02/26 15:14:53;;;;;;;2.3;0.9;;;;;;;;;;;;;
2024/02/26 15:17:20;;;;;;;1.6;1.3;;;;;;;;;;;;;
2024/02/26 15:19:44;;;;;;;2.3;1.7;;;;;;;;;;;;;
2024/02/26 15:22:09;;;;;;;2.4;1.4;;;;;;;;;;;;;
2024/02/26 15:24:34;;;;;;;2.2;1;;;;;;;;;;;;;
2024/02/26 15:26:59;;;;;;;3.3;1.1;;;;;;;;;;;;;
2024/02/26 15:29:24;;;;;;;2.3;1.4;;;;;;;;;;;;;
2024/02/26 15:31:49;;;;;;;8.2;4.1;;;;;;;;;;;;;
2024/02/26 15:34:15;;;;;;;7.3;3.4;;;;;;;;;;;;;
2024/02/26 15:36:40;;;;;;;1.7;1.4;;;;;;;;;;;;;
2024/02/26 15:39:07;;;;;;;1.8;1.2;;;;;;;;;;;;;
2024/02/26 15:41:30;;;;;;;1.5;1.3;;;;;;;;;;;;;
2024/02/26 15:43:55;;;;;;;3.1;1.4;;;;;;;;;;;;;
2024/02/26 15:46:20;;;;;;;1.7;1.3;;;;;;;;;;;;;
2024/02/26 15:48:46;;;;;;;2.8;1.3;;;;;;;;;;;;;
2024/02/26 15:51:10;;;;;;;6.2;2.2;;;;;;;;;;;;;
2024/02/26 15:53:35;;;;;;;2.5;1.8;;;;;;;;;;;;;
2024/02/26 15:56:01;;;;;;;3.2;1.8;;;;;;;;;;;;;
2024/02/26 15:58:26;;;;;;;4.4;1.7;;;;;;;;;;;;;
2024/02/26 16:00:51;;;;;;;3;2.2;;;;;;;;;;;;;
2024/02/26 16:03:16;;;;;;;4;1.8;;;;;;;;;;;;;
2024/02/26 16:05:41;;;;;;;2.7;1.3;;;;;;;;;;;;;
2024/02/26 16:08:06;;;;;;;1.3;1.1;;;;;;;;;;;;;
2024/02/26 16:10:31;;;;;;;1.5;0.9;;;;;;;;;;;;;
2024/02/26 16:12:57;;;;;;;2;1.1;;;;;;;;;;;;;
2024/02/26 16:15:22;;;;;;;1.2;0.9;;;;;;;;;;;;;
2024/02/26 16:17:48;;;;;;;1.2;1.1;;;;;;;;;;;;;
2024/02/26 16:20:12;;;;;;;3.1;1.8;;;;;;;;;;;;;
2024/02/26 16:22:37;;;;;;;1.4;1;;;;;;;;;;;;;
2024/02/26 16:25:02;;;;;;;2;1.1;;;;;;;;;;;;;
2024/02/26 16:27:27;;;;;;;1.5;1.1;;;;;;;;;;;;;
2024/02/26 16:29:52;;;;;;;1;0.9;;;;;;;;;;;;;
2024/02/26 16:32:17;;;;;;;1.7;1;;;;;;;;;;;;;
2024/02/26 16:34:43;;;;;;;4.8;1.5;;;;;;;;;;;;;
2024/02/26 16:37:08;;;;;;;2.6;1.3;;;;;;;;;;;;;
2024/02/26 16:39:32;;;;;;;5.4;1.6;;;;;;;;;;;;;
2024/02/26 16:41:58;;;;;;;2.7;1.8;;;;;;;;;;;;;
2024/02/26 16:44:23;;;;;;;5.3;3.5;;;;;;;;;;;;;
2024/02/26 16:46:48;;;;;;;8.9;5.8;;;;;;;;;;;;;
2024/02/26 16:49:13;;;;;;;14.4;9.5;;;;;;;;;;;;;
2024/02/26 16:51:38;;;;;;;11.1;5;;;;;;;;;;;;;
2024/02/26 16:54:03;;;;;;;12.3;6.9;;;;;;;;;;;;;
2024/02/26 16:56:28;;;;;;;10.3;5.4;;;;;;;;;;;;;
2024/02/26 16:58:53;;;;;;;12;6.6;;;;;;;;;;;;;
2024/02/26 17:01:18;;;;;;;9.6;6.3;;;;;;;;;;;;;
2024/02/26 17:03:44;;;;;;;10;5.8;;;;;;;;;;;;;
2024/02/26 17:06:09;;;;;;;9.4;4.9;;;;;;;;;;;;;
2024/02/26 17:08:35;;;;;;;10.6;6;;;;;;;;;;;;;
2024/02/26 17:11:00;;;;;;;8.7;5.4;;;;;;;;;;;;;
2024/02/26 17:13:24;;;;;;;15.4;7.9;;;;;;;;;;;;;
2024/02/26 17:15:49;;;;;;;8.2;4.6;;;;;;;;;;;;;
2024/02/26 17:18:16;;;;;;;6.9;4;;;;;;;;;;;;;
2024/02/26 17:20:39;;;;;;;5.5;3.2;;;;;;;;;;;;;
2024/02/26 17:23:05;;;;;;;4.2;2.9;;;;;;;;;;;;;
2024/02/26 17:25:30;;;;;;;13.4;7.2;;;;;;;;;;;;;
2024/02/26 17:27:55;;;;;;;15.9;8.9;;;;;;;;;;;;;
2024/02/26 17:30:20;;;;;;;7.8;4.5;;;;;;;;;;;;;
2024/02/26 17:32:45;;;;;;;10.8;5.8;;;;;;;;;;;;;
2024/02/26 17:35:14;;;;;;;12.3;7.6;;;;;;;;;;;;;
2024/02/26 17:37:35;;;;;;;10.8;6.7;;;;;;;;;;;;;
2024/02/26 17:40:01;;;;;;;11.6;6.9;;;;;;;;;;;;;
2024/02/26 17:42:26;;;;;;;10;6.3;;;;;;;;;;;;;
2024/02/26 17:44:52;;;;;;;11.7;7.5;;;;;;;;;;;;;
2024/02/26 17:47:16;;;;;;;6.7;4.6;;;;;;;;;;;;;
2024/02/26 17:49:41;;;;;;;4.6;3.1;;;;;;;;;;;;;
2024/02/26 17:52:06;;;;;;;4.7;3.7;;;;;;;;;;;;;
2024/02/26 17:54:31;;;;;;;8.7;4.9;;;;;;;;;;;;;
2024/02/26 17:56:56;;;;;;;10.1;5.1;;;;;;;;;;;;;
2024/02/26 17:59:21;;;;;;;14.9;8.7;;;;;;;;;;;;;
2024/02/26 18:01:47;;;;;;;6.6;5.3;;;;;;;;;;;;;
2024/02/26 18:04:12;;;;;;;4.2;3.1;;;;;;;;;;;;;
2024/02/26 18:06:38;;;;;;;9.8;4.3;;;;;;;;;;;;;
2024/02/26 18:09:02;;;;;;;7.4;5.3;;;;;;;;;;;;;
2024/02/26 18:11:27;;;;;;;8.1;5.6;;;;;;;;;;;;;
2024/02/26 18:13:52;;;;;;;10.5;6.2;;;;;;;;;;;;;
2024/02/26 18:16:17;;;;;;;6.3;4.6;;;;;;;;;;;;;
2024/02/26 18:18:46;;;;;;;8.3;5.5;;;;;;;;;;;;;
2024/02/26 18:21:08;;;;;;;5.6;4.9;;;;;;;;;;;;;
2024/02/26 18:23:33;;;;;;;3.9;3.4;;;;;;;;;;;;;
2024/02/26 18:25:58;;;;;;;4;3;;;;;;;;;;;;;
2024/02/26 18:28:23;;;;;;;5.1;2.9;;;;;;;;;;;;;
2024/02/26 18:30:48;;;;;;;33.2;18.7;;;;;;;;;;;;;
2024/02/26 18:33:13;;;;;;;13.4;8.4;;;;;;;;;;;;;
2024/02/26 18:35:38;;;;;;;13.3;8.9;;;;;;;;;;;;;
2024/02/26 18:38:04;;;;;;;26.6;14;;;;;;;;;;;;;
2024/02/26 18:40:29;;;;;;;11.5;6.7;;;;;;;;;;;;;
2024/02/26 18:42:54;;;;;;;8.6;5.5;;;;;;;;;;;;;
2024/02/26 18:45:19;;;;;;;8.4;6.2;;;;;;;;;;;;;
2024/02/26 18:47:44;;;;;;;7.9;4.9;;;;;;;;;;;;;
2024/02/26 18:50:09;;;;;;;5.5;3.7;;;;;;;;;;;;;
2024/02/26 18:52:34;;;;;;;6.6;4.2;;;;;;;;;;;;;
2024/02/26 18:54:59;;;;;;;7.5;5.2;;;;;;;;;;;;;
2024/02/26 18:57:25;;;;;;;5.2;4.3;;;;;;;;;;;;;
2024/02/26 18:59:49;;;;;;;5.7;4.2;;;;;;;;;;;;;
2024/02/26 19:02:15;;;;;;;8;4.4;;;;;;;;;;;;;
2024/02/26 19:04:40;;;;;;;6.6;4.4;;;;;;;;;;;;;
2024/02/26 19:07:05;;;;;;;6.5;4.4;;;;;;;;;;;;;
2024/02/26 19:09:30;;;;;;;5.6;4.7;;;;;;;;;;;;;
2024/02/26 19:11:56;;;;;;;5;3.5;;;;;;;;;;;;;
2024/02/26 19:14:20;;;;;;;6.1;4.8;;;;;;;;;;;;;
2024/02/26 19:16:45;;;;;;;6;4.7;;;;;;;;;;;;;
2024/02/26 19:19:10;;;;;;;6.9;5.1;;;;;;;;;;;;;
2024/02/26 19:21:36;;;;;;;11.7;6.9;;;;;;;;;;;;;
2024/02/26 19:24:02;;;;;;;37.7;21;;;;;;;;;;;;;
2024/02/26 19:26:26;;;;;;;23.2;13.1;;;;;;;;;;;;;
2024/02/26 19:28:51;;;;;;;26.2;13.5;;;;;;;;;;;;;
2024/02/26 19:31:16;;;;;;;25.5;14.3;;;;;;;;;;;;;
2024/02/26 19:33:41;;;;;;;45.6;23;;;;;;;;;;;;;
2024/02/26 19:36:06;;;;;;;30.8;17;;;;;;;;;;;;;
2024/02/26 19:38:32;;;;;;;20.9;11.9;;;;;;;;;;;;;
2024/02/26 19:40:56;;;;;;;12.5;7.7;;;;;;;;;;;;;
2024/02/26 19:43:21;;;;;;;8.7;5.6;;;;;;;;;;;;;
2024/02/26 19:45:47;;;;;;;9.4;6.3;;;;;;;;;;;;;
2024/02/26 19:48:12;;;;;;;6.4;3.4;;;;;;;;;;;;;
2024/02/26 19:50:37;;;;;;;7.6;5.5;;;;;;;;;;;;;
2024/02/26 19:53:02;;;;;;;11.1;6.8;;;;;;;;;;;;;
2024/02/26 19:55:29;;;;;;;3.5;2.7;;;;;;;;;;;;;
2024/02/26 19:57:52;;;;;;;4;2.6;;;;;;;;;;;;;
2024/02/26 20:00:17;;;;;;;4.6;2.4;;;;;;;;;;;;;
2024/02/26 20:02:42;;;;;;;5.8;3.9;;;;;;;;;;;;;
2024/02/26 20:05:08;;;;;;;7.3;5.5;;;;;;;;;;;;;
2024/02/26 20:07:33;;;;;;;8.8;5.7;;;;;;;;;;;;;
2024/02/26 20:09:58;;;;;;;9.8;7.3;;;;;;;;;;;;;
2024/02/26 20:12:23;;;;;;;14.9;10.1;;;;;;;;;;;;;
2024/02/26 20:14:48;;;;;;;13.1;8.6;;;;;;;;;;;;;
2024/02/26 20:17:14;;;;;;;14;8.6;;;;;;;;;;;;;
2024/02/26 20:19:38;;;;;;;16.7;10.4;;;;;;;;;;;;;
2024/02/26 20:22:03;;;;;;;23.2;14.7;;;;;;;;;;;;;
2024/02/26 20:24:28;;;;;;;23.2;15;;;;;;;;;;;;;
2024/02/26 20:26:53;;;;;;;19.8;11.6;;;;;;;;;;;;;
2024/02/26 20:29:23;;;;;;;14;9.6;;;;;;;;;;;;;